Time;durP1;ratioP1;P1;durP2;ratioP2;P2;SDS_P1;SDS_P2;PMS_P1;PMS_P2;Temp;Humidity;BMP_temperature;BMP_pressure;BME280_temperature;BME280_humidity;BME280_pressure;Samples;Min_cycle;Max_cycle;Signal;HPM_P1;HPM_P2
2023/01/19 00:01:35;;;;;;;2.50;2.00;;;;;;;7.76;90.80;95979.02;110089;1245;59712;-74
2023/01/19 00:04:05;;;;;;;3.10;2.20;;;;;;;7.73;90.76;95988.09;110086;1245;59628;-74
2023/01/19 00:06:35;;;;;;;3.10;1.90;;;;;;;7.71;90.87;95998.52;110054;1244;71388;-74
2023/01/19 00:09:05;;;;;;;;;;;;;;;7.70;90.61;95988.54;110151;1242;69174;-74
2023/01/19 00:11:35;;;;;;;3.10;2.10;;;;;;;7.68;90.68;95997.73;110114;1244;68139;-74
2023/01/19 00:14:04;;;;;;;3.50;2.20;;;;;;;7.66;90.55;96006.00;110139;1243;59757;-72
2023/01/19 00:16:34;;;;;;;2.40;2.00;;;;;;;7.65;90.59;96006.24;110137;1244;59678;-71
2023/01/19 00:19:04;;;;;;;2.40;1.80;;;;;;;7.63;90.55;95998.80;110134;1251;71218;-74
2023/01/19 00:21:33;;;;;;;3.60;1.80;;;;;;;7.63;90.35;95998.47;110159;1243;69753;-74
2023/01/19 00:24:04;;;;;;;3.10;1.80;;;;;;;7.69;90.22;96001.10;110125;1244;69273;-72
2023/01/19 00:26:34;;;;;;;3.00;1.70;;;;;;;7.76;90.03;95994.98;110096;1245;59681;-72
2023/01/19 00:29:06;;;;;;;3.10;1.80;;;;;;;7.84;89.58;96003.83;110118;1244;59692;-73
2023/01/19 00:31:36;;;;;;;3.50;2.10;;;;;;;7.90;89.43;96000.67;110125;1243;70678;-72
2023/01/19 00:34:06;;;;;;;2.20;1.90;;;;;;;7.95;89.08;95998.09;110056;1244;69710;-73
2023/01/19 00:36:35;;;;;;;;;;;;;;;8.01;88.78;95993.54;110087;1244;69788;-73
2023/01/19 00:39:06;;;;;;;2.10;1.60;;;;;;;8.06;88.48;95986.17;110031;1244;59697;-74
2023/01/19 00:44:24;;;;;;;2.80;1.90;;;;;;;8.11;88.23;95980.13;110255;1243;71359;-71
2023/01/19 00:46:54;;;;;;;2.30;2.10;;;;;;;8.12;88.13;95981.67;110173;1245;69476;-72
2023/01/19 00:49:23;;;;;;;;;;;;;;;8.13;87.82;95980.20;110107;1243;67729;-72
2023/01/19 00:51:53;;;;;;;4.00;2.40;;;;;;;8.13;87.61;95974.27;110035;1244;59737;-72
2023/01/19 00:54:23;;;;;;;3.00;1.90;;;;;;;8.14;87.29;95981.14;110010;1245;59791;-73
2023/01/19 00:56:54;;;;;;;3.50;2.10;;;;;;;8.17;86.88;95979.99;110154;1244;71249;-72
2023/01/19 00:59:26;;;;;;;4.50;2.00;;;;;;;8.18;87.06;95968.67;110149;1244;69360;-72
2023/01/19 01:01:59;;;;;;;3.10;1.80;;;;;;;8.17;87.06;95968.59;110112;1244;68662;-74
2023/01/19 01:04:29;;;;;;;3.10;1.60;;;;;;;8.15;86.93;95965.64;110153;1245;59782;-74
2023/01/19 01:06:58;;;;;;;2.60;1.80;;;;;;;8.11;87.09;95957.95;110062;1244;59638;-74
2023/01/19 01:09:30;;;;;;;2.80;1.70;;;;;;;8.05;87.12;95954.66;110135;1244;71318;-74
2023/01/19 01:12:00;;;;;;;3.10;2.10;;;;;;;8.01;87.16;95947.44;110115;1244;69213;-72
2023/01/19 01:14:30;;;;;;;2.20;1.80;;;;;;;7.98;87.21;95938.69;110055;1244;69200;-71
2023/01/19 01:17:00;;;;;;;4.60;2.00;;;;;;;7.92;87.26;95933.38;110075;1245;59763;-71
2023/01/19 01:19:31;;;;;;;4.00;1.90;;;;;;;7.88;87.20;95933.58;110082;1245;59669;-74
2023/01/19 01:22:01;;;;;;;2.20;1.60;;;;;;;7.83;87.42;95939.73;110127;1244;70438;-72
2023/01/19 01:24:31;;;;;;;2.50;1.80;;;;;;;7.79;87.43;95935.70;110127;1244;69171;-72
2023/01/19 01:27:01;;;;;;;2.70;1.80;;;;;;;7.77;87.53;95932.67;110109;1245;68477;-72
2023/01/19 01:29:34;;;;;;;3.20;2.10;;;;;;;7.74;87.58;95930.13;110107;1245;59703;-71
2023/01/19 01:32:04;;;;;;;2.50;1.80;;;;;;;7.70;87.53;95933.20;110097;1245;59631;-72
2023/01/19 01:34:35;;;;;;;3.30;1.90;;;;;;;7.66;87.69;95938.27;110072;1243;70630;-72
2023/01/19 01:37:07;;;;;;;3.90;1.60;;;;;;;7.62;87.78;95929.00;110120;1244;69858;-72
2023/01/19 01:39:38;;;;;;;2.50;1.90;;;;;;;7.58;87.74;95929.34;110097;1244;68312;-72
2023/01/19 01:42:17;;;;;;;3.40;1.90;;;;;;;7.54;88.16;95928.86;110124;1244;59695;-72
2023/01/19 01:44:54;;;;;;;2.90;2.00;;;;;;;7.48;88.12;95919.78;110156;1243;59702;-72
2023/01/19 01:47:27;;;;;;;4.30;2.10;;;;;;;7.43;88.29;95910.05;110119;1244;70692;-73
2023/01/19 01:50:16;;;;;;;2.60;2.20;;;;;;;7.40;88.43;95908.67;110073;1244;69091;-72
2023/01/19 01:52:54;;;;;;;2.80;2.20;;;;;;;7.39;88.55;95909.45;110089;1244;69716;-72
2023/01/19 01:55:39;;;;;;;5.60;2.10;;;;;;;7.36;88.64;95910.56;110109;1244;59697;-72
2023/01/19 01:58:11;;;;;;;5.20;2.10;;;;;;;7.38;88.55;95908.54;110066;1244;59699;-72
2023/01/19 02:03:33;;;;;;;3.10;2.40;;;;;;;7.35;88.42;95910.31;110104;1243;68614;-72
2023/01/19 02:06:06;;;;;;;2.90;1.90;;;;;;;7.35;88.28;95907.42;110083;1244;68649;-72
2023/01/19 02:14:27;;;;;;;2.70;2.30;;;;;;;7.18;88.38;95899.42;110143;1244;71223;-73
2023/01/19 02:17:00;;;;;;;3.60;2.10;;;;;;;7.12;88.47;95901.98;110068;1244;68474;-73
2023/01/19 02:19:40;;;;;;;4.00;2.00;;;;;;;7.10;88.48;95898.38;110137;1244;69633;-73
2023/01/19 02:22:39;;;;;;;3.20;2.30;;;;;;;7.10;88.64;95892.66;110170;1245;59750;-73
2023/01/19 02:25:09;;;;;;;3.70;2.00;;;;;;;7.10;88.89;95890.39;110186;1244;59678;-73
2023/01/19 02:27:41;;;;;;;4.50;2.20;;;;;;;7.08;88.57;95886.73;110143;1244;71307;-73
2023/01/19 02:30:12;;;;;;;4.00;2.10;;;;;;;7.07;88.55;95886.88;110114;1244;69090;-73
2023/01/19 02:32:42;;;;;;;2.40;2.00;;;;;;;7.06;88.63;95884.33;110094;1244;69334;-72
2023/01/19 02:35:15;;;;;;;3.20;2.50;;;;;;;7.04;88.62;95886.39;110125;1245;59747;-73
2023/01/19 02:37:46;;;;;;;6.10;2.60;;;;;;;7.01;88.41;95886.96;110135;1245;59724;-72
2023/01/19 02:40:19;;;;;;;2.50;2.10;;;;;;;6.99;88.49;95891.32;110101;1244;71411;-73
2023/01/19 02:42:52;;;;;;;2.10;1.80;;;;;;;6.97;88.36;95893.53;110139;1244;68145;-73
2023/01/19 02:45:23;;;;;;;4.20;2.30;;;;;;;6.94;88.70;95888.80;110117;1243;69282;-73
2023/01/19 02:47:54;;;;;;;3.50;1.80;;;;;;;6.89;88.90;95889.05;110115;1243;59735;-72
2023/01/19 02:50:40;;;;;;;3.50;2.20;;;;;;;6.83;89.16;95896.94;110141;1245;59633;-73
2023/01/19 02:53:34;;;;;;;5.30;2.30;;;;;;;6.79;89.65;95893.82;110095;1244;69741;-73
2023/01/19 02:56:27;;;;;;;3.20;2.10;;;;;;;6.73;89.37;95890.19;110072;1245;69649;-73
2023/01/19 02:59:12;;;;;;;2.40;1.80;;;;;;;6.66;89.69;95900.92;110076;1245;69210;-73
2023/01/19 03:02:03;;;;;;;2.50;1.80;;;;;;;6.62;89.44;95906.10;110125;1245;60077;-73
2023/01/19 03:04:56;;;;;;;4.00;2.30;;;;;;;6.60;89.45;95907.62;110125;1244;59602;-73
2023/01/19 03:07:27;;;;;;;3.70;2.40;;;;;;;6.61;90.38;95908.23;110081;1244;70677;-73
2023/01/19 03:10:14;;;;;;;4.10;2.10;;;;;;;6.67;91.68;95904.89;110098;1246;69142;-72
2023/01/19 03:12:52;;;;;;;5.00;2.40;;;;;;;6.72;90.66;95908.27;110105;1244;69158;-73
2023/01/19 03:15:33;;;;;;;6.80;2.50;;;;;;;6.78;90.44;95919.57;110111;1244;59700;-72
2023/01/19 03:18:07;;;;;;;2.20;2.00;;;;;;;6.84;90.04;95926.17;110111;1243;60132;-72
2023/01/19 03:20:40;;;;;;;3.00;1.90;;;;;;;6.88;89.71;95926.86;110139;1244;71726;-73
2023/01/19 03:23:12;;;;;;;2.90;2.00;;;;;;;6.92;89.51;95925.02;110136;1244;69049;-73
2023/01/19 03:25:53;;;;;;;3.60;2.10;;;;;;;6.93;89.19;95919.20;110123;1244;68357;-72
2023/01/19 03:28:25;;;;;;;3.60;2.20;;;;;;;6.96;89.55;95920.52;110109;1242;59754;-73
2023/01/19 03:31:06;;;;;;;3.20;2.10;;;;;;;7.00;89.56;95918.64;110144;1244;59750;-73
2023/01/19 03:33:42;;;;;;;3.60;2.70;;;;;;;7.02;89.05;95915.69;110107;1245;70648;-73
2023/01/19 03:36:30;;;;;;;4.00;2.50;;;;;;;7.04;89.23;95911.91;110086;1242;69357;-73
2023/01/19 03:39:04;;;;;;;4.80;2.60;;;;;;;7.04;89.58;95897.14;110091;1245;69219;-73
2023/01/19 03:41:37;;;;;;;3.80;2.70;;;;;;;7.05;89.48;95907.48;110088;1244;59689;-73
2023/01/19 03:44:11;;;;;;;4.10;2.60;;;;;;;7.05;89.30;95895.12;110127;1243;59702;-72
2023/01/19 03:46:41;;;;;;;3.50;2.40;;;;;;;7.05;89.00;95897.16;110099;1245;71425;-73
2023/01/19 03:49:11;;;;;;;;;;;;;;;7.04;89.09;95898.32;110126;1244;69042;-73
2023/01/19 03:51:41;;;;;;;4.50;3.30;;;;;;;7.01;89.02;95900.17;110120;1243;69285;-73
2023/01/19 03:54:12;;;;;;;4.40;3.30;;;;;;;6.95;89.24;95914.19;110075;1244;59718;-73
2023/01/19 03:56:43;;;;;;;8.10;3.50;;;;;;;6.89;89.53;95925.69;110117;1242;59766;-73
2023/01/19 03:59:16;;;;;;;7.50;3.90;;;;;;;6.85;89.76;95925.05;110100;1248;71952;-73
2023/01/19 04:01:47;;;;;;;4.50;3.50;;;;;;;6.81;90.02;95927.07;110111;1244;69685;-72
2023/01/19 04:04:17;;;;;;;5.40;3.60;;;;;;;6.79;89.46;95925.19;110087;1244;68362;-73
2023/01/19 04:06:50;;;;;;;6.30;3.20;;;;;;;6.75;90.18;95923.59;110086;1245;59633;-73
2023/01/19 04:09:20;;;;;;;5.50;3.30;;;;;;;6.74;90.11;95912.73;110152;1245;59744;-73
2023/01/19 04:11:51;;;;;;;3.40;2.90;;;;;;;6.74;90.13;95923.70;110120;1244;71775;-73
2023/01/19 04:14:21;;;;;;;4.10;3.20;;;;;;;6.72;90.56;95927.14;110114;1245;69278;-73
2023/01/19 04:16:51;;;;;;;5.80;3.50;;;;;;;6.69;91.65;95924.23;110129;1244;68603;-72
2023/01/19 04:19:20;;;;;;;6.10;3.80;;;;;;;6.67;91.40;95930.68;110126;1244;59702;-73
2023/01/19 04:21:50;;;;;;;5.20;3.40;;;;;;;6.66;91.15;95932.65;110118;1245;59744;-73
2023/01/19 04:24:21;;;;;;;5.60;2.70;;;;;;;6.68;90.63;95930.71;110070;1243;71731;-73
2023/01/19 04:26:52;;;;;;;5.00;2.90;;;;;;;6.72;90.34;95930.97;110151;1245;68349;-73
2023/01/19 04:29:23;;;;;;;4.40;3.20;;;;;;;6.78;89.99;95921.64;110097;1244;68605;-72
2023/01/19 04:31:52;;;;;;;5.70;3.30;;;;;;;6.84;89.87;95926.15;110146;1244;59763;-73
2023/01/19 04:34:22;;;;;;;5.70;3.30;;;;;;;6.91;89.48;95924.39;110108;1244;59680;-72
2023/01/19 04:36:54;;;;;;;6.60;3.30;;;;;;;6.98;89.43;95923.62;110133;1244;71445;-74
2023/01/19 04:39:24;;;;;;;5.90;3.70;;;;;;;7.02;89.22;95930.22;110117;1245;69651;-74
2023/01/19 04:41:55;;;;;;;;;;;;;;;7.06;89.08;95935.63;110105;1242;67785;-73
2023/01/19 04:44:24;;;;;;;3.50;3.10;;;;;;;7.08;89.12;95934.55;110109;1245;59692;-73
2023/01/19 04:46:54;;;;;;;4.20;2.90;;;;;;;7.13;88.78;95938.88;110088;1244;59727;-73
2023/01/19 04:49:24;;;;;;;5.00;3.30;;;;;;;7.18;88.40;95927.16;110146;1244;71350;-73
2023/01/19 04:51:54;;;;;;;5.30;3.30;;;;;;;7.23;88.14;95931.25;110114;1243;69196;-73
2023/01/19 04:54:24;;;;;;;5.80;3.60;;;;;;;7.29;87.90;95925.02;110068;1245;69269;-73
2023/01/19 04:56:53;;;;;;;4.70;4.20;;;;;;;7.35;87.82;95927.69;110075;1244;59748;-73
2023/01/19 04:59:23;;;;;;;6.20;4.10;;;;;;;7.37;87.51;95935.46;110108;1244;59685;-73
2023/01/19 05:01:53;;;;;;;9.90;4.70;;;;;;;7.38;87.37;95931.52;110127;1245;71101;-72
2023/01/19 05:04:24;;;;;;;4.90;4.00;;;;;;;7.41;87.38;95927.52;110139;1245;69127;-72
2023/01/19 05:06:53;;;;;;;6.00;3.70;;;;;;;7.41;86.93;95928.40;110125;1245;68562;-72
2023/01/19 05:09:22;;;;;;;7.30;4.90;;;;;;;7.39;87.04;95934.22;110084;1243;59777;-73
2023/01/19 05:11:53;;;;;;;7.40;4.20;;;;;;;7.39;86.99;95933.89;110079;1245;59669;-73
2023/01/19 05:14:22;;;;;;;6.70;4.20;;;;;;;7.37;87.06;95937.40;110080;1242;71226;-73
2023/01/19 05:16:52;;;;;;;7.00;4.50;;;;;;;7.35;87.05;95937.70;110218;1244;68572;-72
2023/01/19 05:19:22;;;;;;;7.60;4.50;;;;;;;7.33;86.95;95941.18;110125;1243;69277;-74
2023/01/19 05:21:51;;;;;;;6.20;4.60;;;;;;;7.32;86.95;95950.10;110191;1245;59757;-72
2023/01/19 05:24:21;;;;;;;6.20;3.70;;;;;;;7.35;86.76;95955.73;110097;1246;59703;-73
2023/01/19 05:26:50;;;;;;;6.80;3.50;;;;;;;7.39;86.49;95955.25;110141;1244;71531;-73
2023/01/19 05:29:20;;;;;;;5.70;3.20;;;;;;;7.42;86.32;95951.56;110085;1243;68581;-73
2023/01/19 05:31:49;;;;;;;3.70;2.70;;;;;;;7.50;85.28;95957.77;110116;1245;68650;-73
2023/01/19 05:34:19;;;;;;;6.90;3.40;;;;;;;7.60;85.69;95958.48;110081;1245;59735;-73
2023/01/19 05:36:48;;;;;;;6.70;3.80;;;;;;;7.65;85.50;95954.80;110097;1243;59700;-73
2023/01/19 05:39:19;;;;;;;7.10;3.50;;;;;;;7.66;85.14;95949.36;110091;1245;71683;-74
2023/01/19 05:41:48;;;;;;;4.80;3.20;;;;;;;7.66;85.14;95955.88;110112;1245;68312;-74
2023/01/19 05:44:18;;;;;;;5.40;3.10;;;;;;;7.67;85.06;95961.20;110116;1245;68580;-75
2023/01/19 05:46:48;;;;;;;6.20;3.40;;;;;;;7.69;84.97;95968.02;110064;1245;59740;-74
2023/01/19 05:49:17;;;;;;;8.20;4.00;;;;;;;7.73;84.87;95970.48;110107;1243;59718;-73
2023/01/19 05:51:47;;;;;;;10.10;3.90;;;;;;;7.74;84.54;95971.94;110084;1244;70607;-73
2023/01/19 05:54:17;;;;;;;5.30;3.60;;;;;;;7.76;83.87;95977.30;110095;1244;69805;-74
2023/01/19 05:56:47;;;;;;;6.80;3.40;;;;;;;7.84;83.91;95982.20;110120;1245;69297;-72
2023/01/19 05:59:22;;;;;;;8.70;3.70;;;;;;;7.90;83.42;95985.77;110065;1244;59747;-74
2023/01/19 06:01:53;;;;;;;7.80;3.80;;;;;;;8.00;83.52;95985.19;110149;1245;59697;-73
2023/01/19 06:04:22;;;;;;;;;;;;;;;8.04;83.05;95987.89;110120;1245;72007;-73
2023/01/19 06:06:51;;;;;;;6.60;3.70;;;;;;;8.08;83.19;95994.53;110153;1243;68754;-73
2023/01/19 06:09:20;;;;;;;6.10;3.40;;;;;;;8.11;83.17;95990.90;110122;1245;69266;-72
2023/01/19 06:11:48;;;;;;;6.30;3.50;;;;;;;8.13;83.03;95989.23;110134;1244;59748;-72
2023/01/19 06:14:18;;;;;;;6.60;3.20;;;;;;;8.15;83.27;95987.47;110135;1246;59685;-72
2023/01/19 06:16:47;;;;;;;9.70;4.10;;;;;;;8.19;83.04;95983.41;110124;1245;71394;-73
2023/01/19 06:19:17;;;;;;;9.20;3.10;;;;;;;8.22;82.66;95979.31;110102;1245;69569;-73
2023/01/19 06:21:50;;;;;;;7.80;3.80;;;;;;;8.23;82.59;95976.41;110149;1243;69520;-73
2023/01/19 06:24:20;;;;;;;6.60;3.40;;;;;;;8.24;81.52;95982.95;110098;1245;59663;-74
2023/01/19 06:26:50;;;;;;;8.20;3.70;;;;;;;8.24;82.06;95976.83;110112;1245;59739;-73
2023/01/19 06:29:19;;;;;;;7.60;3.70;;;;;;;8.25;81.99;95967.77;110134;1245;71384;-72
2023/01/19 06:31:48;;;;;;;9.60;3.80;;;;;;;8.26;81.59;95962.23;110102;1245;69819;-72
2023/01/19 06:34:18;;;;;;;7.20;3.70;;;;;;;8.29;81.39;95963.54;110071;1245;69851;-72
2023/01/19 06:36:47;;;;;;;7.50;4.50;;;;;;;8.31;80.83;95958.67;110062;1244;59800;-72
2023/01/19 06:39:16;;;;;;;8.40;3.60;;;;;;;8.33;80.70;95952.10;110083;1244;59741;-73
2023/01/19 06:41:45;;;;;;;7.30;3.50;;;;;;;8.36;81.05;95954.11;110140;1244;71947;-73
2023/01/19 06:44:14;;;;;;;10.00;3.90;;;;;;;8.39;81.24;95950.58;110074;1246;69274;-74
2023/01/19 06:46:43;;;;;;;6.90;3.30;;;;;;;8.40;81.23;95953.77;110096;1244;69938;-75
2023/01/19 06:49:12;;;;;;;10.30;4.40;;;;;;;8.46;80.43;95957.84;110066;1245;59751;-74
2023/01/19 06:51:42;;;;;;;10.60;3.50;;;;;;;8.52;80.22;95963.02;110120;1245;59677;-75
2023/01/19 06:54:11;;;;;;;8.10;3.50;;;;;;;8.56;79.84;95963.12;110157;1245;71218;-74
2023/01/19 06:56:41;;;;;;;6.50;2.90;;;;;;;8.61;79.66;95969.27;110060;1245;69215;-73
2023/01/19 06:59:09;;;;;;;7.60;3.50;;;;;;;8.68;79.14;95963.65;110102;1245;68547;-74
2023/01/19 07:01:39;;;;;;;6.40;2.80;;;;;;;8.73;78.86;95963.45;110081;1246;59696;-74
2023/01/19 07:04:09;;;;;;;8.50;4.20;;;;;;;8.78;78.49;95970.73;110066;1244;59760;-72
2023/01/19 07:06:38;;;;;;;9.20;3.60;;;;;;;8.81;78.47;95972.61;110099;1244;71996;-73
2023/01/19 07:09:10;;;;;;;7.80;3.60;;;;;;;8.85;78.44;95970.54;110118;1245;69385;-73
2023/01/19 07:11:39;;;;;;;10.10;3.20;;;;;;;8.90;78.15;95976.27;110095;1245;69642;-73
2023/01/19 07:14:08;;;;;;;10.80;3.80;;;;;;;8.98;78.19;95978.77;110090;1245;59740;-68
2023/01/19 07:16:37;;;;;;;9.90;3.80;;;;;;;9.10;78.46;95978.16;110110;1245;59667;-70
2023/01/19 07:19:09;;;;;;;10.50;4.80;;;;;;;9.19;77.64;95987.81;110087;1244;71879;-69
2023/01/19 07:21:38;;;;;;;7.00;3.60;;;;;;;9.24;77.56;95990.27;110135;1245;68384;-69
2023/01/19 07:24:07;;;;;;;9.90;4.90;;;;;;;9.30;77.84;95991.10;110076;1245;69356;-69
2023/01/19 07:26:36;;;;;;;11.50;4.90;;;;;;;9.39;77.46;95987.73;110103;1245;59634;-69
2023/01/19 07:29:05;;;;;;;25.10;13.90;;;;;;;9.49;75.93;95983.34;110067;1245;59707;-69
2023/01/19 07:31:34;;;;;;;11.60;4.90;;;;;;;9.61;75.79;95983.58;110103;1243;71941;-69
2023/01/19 07:34:04;;;;;;;8.90;3.60;;;;;;;9.79;74.49;95977.84;110131;1244;69631;-69
2023/01/19 07:36:34;;;;;;;11.40;4.60;;;;;;;9.99;74.33;95962.02;110127;1245;69103;-69
2023/01/19 07:39:03;;;;;;;14.90;5.30;;;;;;;10.34;74.33;95950.79;110094;1245;59681;-68
2023/01/19 07:41:33;;;;;;;8.90;3.40;;;;;;;10.65;72.84;95952.83;110104;1245;59684;-68
2023/01/19 07:44:03;;;;;;;12.90;3.90;;;;;;;10.98;71.03;95946.49;110134;1245;71395;-70
2023/01/19 07:46:32;;;;;;;6.80;2.80;;;;;;;11.25;69.81;95941.53;110102;1245;70176;-70
2023/01/19 07:49:01;;;;;;;7.00;2.60;;;;;;;11.46;68.81;95939.13;110134;1245;69276;-70
2023/01/19 07:51:30;;;;;;;10.20;3.20;;;;;;;11.79;67.82;95935.80;110121;1244;59705;-69
2023/01/19 07:53:59;;;;;;;12.10;3.60;;;;;;;12.22;66.09;95945.66;110116;1244;59644;-70
2023/01/19 07:56:31;;;;;;;12.40;3.40;;;;;;;12.71;65.27;95959.23;110071;1247;71960;-69
2023/01/19 07:59:01;;;;;;;10.00;3.70;;;;;;;13.17;62.77;95967.17;110095;1245;68507;-68
2023/01/19 08:01:30;;;;;;;11.10;3.20;;;;;;;13.31;61.53;95978.58;110098;1246;70377;-69
2023/01/19 08:03:59;;;;;;;11.40;3.70;;;;;;;13.26;61.40;95991.41;110118;1245;59737;-68
2023/01/19 08:06:34;;;;;;;9.20;3.30;;;;;;;13.12;59.34;96001.42;110117;1245;59712;-70
2023/01/19 08:09:05;;;;;;;12.60;3.90;;;;;;;12.92;59.62;96000.83;110134;1245;71509;-69
2023/01/19 08:11:34;;;;;;;11.10;3.00;;;;;;;12.76;60.83;95997.50;110204;1245;70401;-72
2023/01/19 08:14:03;;;;;;;12.40;3.20;;;;;;;12.60;60.26;95996.92;110184;1245;69852;-71
2023/01/19 08:16:35;;;;;;;12.50;4.10;;;;;;;12.42;60.23;95990.07;110159;1245;59749;-69
2023/01/19 08:19:04;;;;;;;12.40;3.30;;;;;;;12.30;60.66;95998.63;110193;1245;59699;-69
2023/01/19 08:21:35;;;;;;;9.60;2.80;;;;;;;12.20;61.17;95994.39;109914;1243;70693;-70
2023/01/19 08:24:05;;;;;;;13.70;4.60;;;;;;;12.15;61.29;95987.39;109837;1245;69427;-69
2023/01/19 08:26:34;;;;;;;11.00;3.40;;;;;;;12.14;60.85;95984.72;110080;1243;69328;-68
2023/01/19 08:29:04;;;;;;;12.30;3.20;;;;;;;12.15;59.74;95984.38;110072;1243;59710;-68
2023/01/19 08:31:33;;;;;;;;;;;;;;;12.20;60.01;95984.59;110095;1245;59671;-68
2023/01/19 08:34:02;;;;;;;11.00;3.30;;;;;;;12.24;59.91;95995.68;110116;1247;71755;-69
2023/01/19 08:36:31;;;;;;;13.30;3.60;;;;;;;12.25;59.96;95993.32;110086;1245;68556;-68
2023/01/19 08:39:00;;;;;;;13.40;3.50;;;;;;;12.26;60.10;95999.36;110057;1245;69308;-67
2023/01/19 08:41:29;;;;;;;11.50;2.90;;;;;;;12.27;59.94;96004.47;110124;1244;59748;-66
2023/01/19 08:43:58;;;;;;;11.60;3.40;;;;;;;12.29;59.76;96002.23;109842;1244;60076;-65
2023/01/19 08:46:27;;;;;;;10.70;3.20;;;;;;;12.34;59.76;96003.95;110082;1245;70785;-69
2023/01/19 08:48:57;;;;;;;10.70;4.10;;;;;;;12.41;59.27;96007.68;109884;1246;69711;-66
2023/01/19 08:51:25;;;;;;;15.80;3.50;;;;;;;12.45;58.50;96003.48;110035;1245;69729;-71
2023/01/19 08:53:54;;;;;;;13.00;3.60;;;;;;;12.53;58.67;96007.52;110154;1245;59752;-68
2023/01/19 08:56:23;;;;;;;15.80;4.10;;;;;;;12.56;58.88;96006.30;109891;1245;59750;-68
2023/01/19 08:58:52;;;;;;;12.40;3.30;;;;;;;12.58;58.36;96010.25;109905;1244;71970;-69
2023/01/19 09:01:36;;;;;;;12.80;3.30;;;;;;;12.60;58.51;96014.58;109786;1247;69731;-68
2023/01/19 09:04:05;;;;;;;13.20;3.70;;;;;;;12.59;57.81;96014.91;109954;1243;69738;-68
2023/01/19 09:06:34;;;;;;;13.90;3.50;;;;;;;12.58;58.44;96017.04;109717;1247;59743;-71
2023/01/19 09:09:03;;;;;;;17.60;4.40;;;;;;;12.58;57.93;96016.91;109809;1255;59631;-70
2023/01/19 09:11:33;;;;;;;15.50;3.60;;;;;;;12.58;57.74;96020.02;109839;1243;71960;-70
2023/01/19 09:14:02;;;;;;;11.50;3.20;;;;;;;12.61;57.24;96007.52;109789;1246;69050;-70
2023/01/19 09:16:32;;;;;;;12.90;3.40;;;;;;;12.67;56.90;95999.80;109953;1246;69775;-70
2023/01/19 09:19:01;;;;;;;9.80;3.00;;;;;;;12.74;56.73;96003.09;109930;1246;59759;-69
2023/01/19 09:21:29;;;;;;;9.80;3.10;;;;;;;12.84;56.51;95999.04;109921;1246;59737;-69
2023/01/19 09:23:59;;;;;;;13.60;3.80;;;;;;;12.93;56.87;96004.16;109944;1248;71718;-72
2023/01/19 09:26:28;;;;;;;15.40;3.30;;;;;;;13.02;55.91;95999.96;109875;1245;70181;-67
2023/01/19 09:29:00;;;;;;;11.10;3.00;;;;;;;13.13;55.62;96004.28;109770;1246;70315;-68
2023/01/19 09:31:29;;;;;;;16.80;3.30;;;;;;;13.22;55.42;95998.44;109738;1246;59700;-67
2023/01/19 09:33:58;;;;;;;13.60;3.40;;;;;;;13.32;55.11;95998.88;109765;1247;59704;-65
2023/01/19 09:36:27;;;;;;;14.70;3.50;;;;;;;13.40;54.61;96003.98;109817;1247;72472;-66
2023/01/19 09:38:56;;;;;;;12.50;3.90;;;;;;;13.55;54.17;95988.54;109740;1246;69199;-68
2023/01/19 09:41:25;;;;;;;13.60;3.30;;;;;;;13.72;54.17;95992.95;109406;1246;591485;-68
2023/01/19 09:43:59;;;;;;;13.20;3.70;;;;;;;13.98;53.41;95995.06;109873;1254;59706;-68
2023/01/19 09:46:38;;;;;;;13.50;3.10;;;;;;;14.12;53.00;95997.57;109834;1244;59739;-65
2023/01/19 09:49:10;;;;;;;18.70;5.20;;;;;;;14.10;53.36;95990.04;109758;1247;71390;-65
2023/01/19 09:51:43;;;;;;;16.20;4.50;;;;;;;14.11;53.19;95990.54;109919;1245;68678;-65
2023/01/19 09:54:21;;;;;;;14.90;3.60;;;;;;;14.30;53.01;95988.54;109747;1246;69908;-65
2023/01/19 09:56:52;;;;;;;16.00;4.10;;;;;;;14.49;52.83;95985.52;109882;1245;59756;-65
2023/01/19 09:59:21;;;;;;;22.50;6.90;;;;;;;14.62;52.87;95979.65;109862;1245;59718;-66
2023/01/19 10:02:01;;;;;;;14.90;3.90;;;;;;;14.76;52.15;95987.91;109794;1243;71967;-65
2023/01/19 10:04:38;;;;;;;13.50;3.40;;;;;;;15.04;51.01;95993.71;109788;1245;69802;-67
2023/01/19 10:07:31;;;;;;;15.00;4.00;;;;;;;15.07;50.47;95994.45;109735;1245;70221;-70
2023/01/19 10:10:11;;;;;;;16.90;3.50;;;;;;;14.93;50.66;96000.74;109938;1249;59762;-70
2023/01/19 10:12:55;;;;;;;12.50;3.90;;;;;;;14.76;50.11;95999.83;109847;1245;59642;-66
2023/01/19 10:16:01;;;;;;;12.40;3.50;;;;;;;14.67;50.64;96000.45;109725;1244;71438;-70
2023/01/19 10:18:50;;;;;;;15.30;3.60;;;;;;;14.58;51.36;95988.39;109938;1245;69192;-66
2023/01/19 10:21:30;;;;;;;15.10;3.40;;;;;;;14.53;51.63;95975.70;109890;1247;69281;-69
2023/01/19 10:24:14;;;;;;;15.50;4.40;;;;;;;14.55;52.19;95973.93;109838;1248;59757;-66
2023/01/19 10:26:53;;;;;;;13.90;4.30;;;;;;;14.51;51.93;95964.40;109836;1246;59703;-66
2023/01/19 10:29:33;;;;;;;19.60;5.70;;;;;;;14.46;52.69;95968.91;109917;1244;71818;-66
2023/01/19 10:32:13;;;;;;;12.10;3.10;;;;;;;14.46;53.56;95971.52;109894;1245;69861;-69
2023/01/19 10:34:42;;;;;;;13.90;4.00;;;;;;;14.43;53.39;95972.44;109879;1254;68733;-66
2023/01/19 10:37:24;;;;;;;11.30;4.30;;;;;;;14.41;53.67;95976.31;109738;1244;59752;-67
2023/01/19 10:39:56;;;;;;;10.70;3.60;;;;;;;14.40;53.59;95969.48;109733;1243;59702;-66
2023/01/19 10:42:28;;;;;;;11.60;3.70;;;;;;;14.42;53.61;95962.71;109709;1245;71393;-67
2023/01/19 10:44:59;;;;;;;13.90;3.00;;;;;;;14.36;52.95;95964.63;109826;1252;69820;-67
2023/01/19 10:47:35;;;;;;;12.70;3.10;;;;;;;14.32;53.49;95970.21;109821;1246;69278;-67
2023/01/19 10:50:27;;;;;;;14.80;3.50;;;;;;;14.19;53.03;95975.56;109738;1246;59744;-67
2023/01/19 10:53:02;;;;;;;14.10;3.80;;;;;;;14.05;53.87;95982.92;109820;1246;59761;-70
2023/01/19 10:55:37;;;;;;;17.10;3.40;;;;;;;13.95;53.87;95976.33;109743;1245;71355;-68
2023/01/19 10:58:25;;;;;;;18.00;3.90;;;;;;;13.86;53.99;95975.05;109776;1246;70267;-68
2023/01/19 11:00:54;;;;;;;18.60;3.90;;;;;;;13.75;53.95;95972.14;109801;1246;69261;-68
2023/01/19 11:03:24;;;;;;;12.80;3.90;;;;;;;13.70;54.56;95977.30;109907;1250;59758;-68
2023/01/19 11:05:58;;;;;;;17.40;5.00;;;;;;;13.63;55.21;95975.73;109864;1245;59754;-67
2023/01/19 11:08:30;;;;;;;14.40;4.30;;;;;;;13.61;55.23;95973.52;110030;1244;71980;-68
2023/01/19 11:11:03;;;;;;;14.50;4.50;;;;;;;13.58;55.16;95976.82;109858;1244;69821;-67
2023/01/19 11:13:35;;;;;;;12.90;3.70;;;;;;;13.56;55.33;95969.67;109954;1254;69707;-68
2023/01/19 11:16:13;;;;;;;15.80;3.80;;;;;;;13.56;54.95;95963.40;109756;1248;59724;-67
2023/01/19 11:18:44;;;;;;;13.10;3.90;;;;;;;13.57;54.59;95963.42;109853;1247;59690;-67
2023/01/19 11:21:16;;;;;;;10.70;3.30;;;;;;;13.59;54.93;95971.81;109893;1245;71360;-66
2023/01/19 11:23:53;;;;;;;14.50;4.60;;;;;;;13.60;55.21;95977.36;109887;1245;68298;-67
2023/01/19 11:26:34;;;;;;;13.40;4.00;;;;;;;13.58;55.58;95979.11;109831;1244;69887;-66
2023/01/19 11:29:04;;;;;;;18.10;3.60;;;;;;;13.56;55.89;95982.96;109701;1245;59740;-68
2023/01/19 11:31:34;;;;;;;15.20;3.40;;;;;;;13.53;55.31;95981.71;109731;1245;59687;-68
2023/01/19 11:34:20;;;;;;;19.00;6.10;;;;;;;13.51;55.84;95984.77;109754;1245;71510;-68
2023/01/19 11:37:04;;;;;;;16.90;4.10;;;;;;;13.46;56.00;95980.19;109819;1247;68731;-68
2023/01/19 11:39:46;;;;;;;15.90;4.00;;;;;;;13.42;55.53;95982.95;109758;1244;69609;-69
2023/01/19 11:42:15;;;;;;;19.90;4.00;;;;;;;13.40;55.87;95983.14;109783;1248;59845;-67
2023/01/19 11:45:03;;;;;;;14.90;3.50;;;;;;;13.39;55.75;95981.66;109757;1246;59709;-68
2023/01/19 11:47:39;;;;;;;15.10;3.70;;;;;;;13.38;55.89;95997.88;109784;1245;71981;-68
2023/01/19 11:50:23;;;;;;;10.70;3.70;;;;;;;13.40;55.99;95998.05;109878;1245;68615;-68
2023/01/19 11:52:56;;;;;;;16.10;4.60;;;;;;;13.43;55.68;96000.14;109850;1255;69724;-67
2023/01/19 11:55:39;;;;;;;21.10;5.00;;;;;;;13.48;55.15;95999.98;109855;1245;59745;-67
2023/01/19 11:58:15;;;;;;;17.10;4.90;;;;;;;13.53;55.22;95996.47;109738;1245;59755;-66
2023/01/19 12:00:53;;;;;;;13.70;4.50;;;;;;;13.58;53.99;95995.02;109738;1245;71274;-67
2023/01/19 12:03:25;;;;;;;14.50;3.70;;;;;;;13.65;53.18;95989.86;109782;1245;69086;-70
2023/01/19 12:06:02;;;;;;;17.80;3.90;;;;;;;13.71;53.14;95994.86;109693;1245;68175;-67